sensor_id;sensor_type;location;lat;lon;timestamp;temperature;humidity
13642;DHT22;6894;52.196;9.904;2022-08-19T00:01:55;20.40;99.90
13642;DHT22;6894;52.196;9.904;2022-08-19T00:04:25;20.20;99.90
13642;DHT22;6894;52.196;9.904;2022-08-19T00:06:53;20.00;99.90
13642;DHT22;6894;52.196;9.904;2022-08-19T00:09:22;20.00;99.90
13642;DHT22;6894;52.196;9.904;2022-08-19T00:11:50;19.90;99.90
13642;DHT22;6894;52.196;9.904;2022-08-19T00:14:17;20.00;99.90
13642;DHT22;6894;52.196;9.904;2022-08-19T00:16:46;19.90;99.90
13642;DHT22;6894;52.196;9.904;2022-08-19T00:19:14;19.80;99.90
13642;DHT22;6894;52.196;9.904;2022-08-19T00:21:41;19.70;99.90
13642;DHT22;6894;52.196;9.904;2022-08-19T00:24:10;19.70;99.90
13642;DHT22;6894;52.196;9.904;2022-08-19T00:26:39;19.70;99.90
13642;DHT22;6894;52.196;9.904;2022-08-19T00:29:09;19.70;99.90
13642;DHT22;6894;52.196;9.904;2022-08-19T00:31:36;19.70;99.90
13642;DHT22;6894;52.196;9.904;2022-08-19T00:34:03;19.60;99.90
13642;DHT22;6894;52.196;9.904;2022-08-19T00:36:29;19.50;99.90
13642;DHT22;6894;52.196;9.904;2022-08-19T00:38:58;19.60;99.90
13642;DHT22;6894;52.196;9.904;2022-08-19T00:41:25;19.60;99.90
13642;DHT22;6894;52.196;9.904;2022-08-19T00:44:05;19.50;99.90
13642;DHT22;6894;52.196;9.904;2022-08-19T00:46:33;19.60;99.90
13642;DHT22;6894;52.196;9.904;2022-08-19T00:49:05;19.50;99.90
13642;DHT22;6894;52.196;9.904;2022-08-19T00:51:33;19.50;99.90
13642;DHT22;6894;52.196;9.904;2022-08-19T00:54:02;19.60;99.90
13642;DHT22;6894;52.196;9.904;2022-08-19T00:56:30;19.60;99.90
13642;DHT22;6894;52.196;9.904;2022-08-19T00:58:58;19.60;99.90
13642;DHT22;6894;52.196;9.904;2022-08-19T01:01:28;19.80;99.90
13642;DHT22;6894;52.196;9.904;2022-08-19T01:03:55;19.80;99.90
13642;DHT22;6894;52.196;9.904;2022-08-19T01:06:22;19.70;99.90
13642;DHT22;6894;52.196;9.904;2022-08-19T01:08:48;19.70;99.90
13642;DHT22;6894;52.196;9.904;2022-08-19T01:11:16;19.70;99.90
13642;DHT22;6894;52.196;9.904;2022-08-19T01:13:43;19.70;99.90
13642;DHT22;6894;52.196;9.904;2022-08-19T01:16:11;19.70;99.90
13642;DHT22;6894;52.196;9.904;2022-08-19T01:18:41;19.60;99.90
13642;DHT22;6894;52.196;9.904;2022-08-19T01:21:10;19.70;99.90
13642;DHT22;6894;52.196;9.904;2022-08-19T01:23:42;19.60;99.90
13642;DHT22;6894;52.196;9.904;2022-08-19T01:26:11;19.60;99.90
13642;DHT22;6894;52.196;9.904;2022-08-19T01:28:40;19.50;99.90
13642;DHT22;6894;52.196;9.904;2022-08-19T01:31:09;19.50;99.90
13642;DHT22;6894;52.196;9.904;2022-08-19T01:33:37;19.60;99.90
13642;DHT22;6894;52.196;9.904;2022-08-19T01:36:09;19.50;99.90
13642;DHT22;6894;52.196;9.904;2022-08-19T01:38:38;19.60;99.90
13642;DHT22;6894;52.196;9.904;2022-08-19T01:41:07;19.50;99.90
13642;DHT22;6894;52.196;9.904;2022-08-19T01:43:34;19.40;99.90
13642;DHT22;6894;52.196;9.904;2022-08-19T01:46:02;19.40;99.90
13642;DHT22;6894;52.196;9.904;2022-08-19T01:48:33;19.40;99.90
13642;DHT22;6894;52.196;9.904;2022-08-19T01:51:00;19.30;99.90
13642;DHT22;6894;52.196;9.904;2022-08-19T01:53:26;19.30;99.90
13642;DHT22;6894;52.196;9.904;2022-08-19T01:55:53;19.20;99.90
13642;DHT22;6894;52.196;9.904;2022-08-19T01:58:26;19.30;99.90
13642;DHT22;6894;52.196;9.904;2022-08-19T02:00:54;19.40;99.90
13642;DHT22;6894;52.196;9.904;2022-08-19T02:03:21;19.40;99.90
13642;DHT22;6894;52.196;9.904;2022-08-19T02:05:54;19.50;99.90
13642;DHT22;6894;52.196;9.904;2022-08-19T02:08:21;19.50;99.90
13642;DHT22;6894;52.196;9.904;2022-08-19T02:10:48;19.50;99.90
13642;DHT22;6894;52.196;9.904;2022-08-19T02:13:15;19.40;99.90
13642;DHT22;6894;52.196;9.904;2022-08-19T02:15:43;19.40;99.90
13642;DHT22;6894;52.196;9.904;2022-08-19T02:18:10;19.30;99.90
13642;DHT22;6894;52.196;9.904;2022-08-19T02:20:38;19.30;99.90
13642;DHT22;6894;52.196;9.904;2022-08-19T02:23:05;19.40;99.90
13642;DHT22;6894;52.196;9.904;2022-08-19T02:25:32;19.30;99.90
13642;DHT22;6894;52.196;9.904;2022-08-19T02:27:59;19.30;99.90
13642;DHT22;6894;52.196;9.904;2022-08-19T02:30:25;19.30;99.90
13642;DHT22;6894;52.196;9.904;2022-08-19T02:32:54;19.20;99.90
13642;DHT22;6894;52.196;9.904;2022-08-19T02:35:21;19.10;99.90
13642;DHT22;6894;52.196;9.904;2022-08-19T02:37:48;19.10;99.90
13642;DHT22;6894;52.196;9.904;2022-08-19T02:40:32;19.00;99.90
13642;DHT22;6894;52.196;9.904;2022-08-19T02:43:00;19.10;99.90
13642;DHT22;6894;52.196;9.904;2022-08-19T02:45:31;19.20;99.90
13642;DHT22;6894;52.196;9.904;2022-08-19T02:47:59;19.20;99.90
13642;DHT22;6894;52.196;9.904;2022-08-19T02:50:26;19.20;99.90
13642;DHT22;6894;52.196;9.904;2022-08-19T02:52:53;19.30;99.90
13642;DHT22;6894;52.196;9.904;2022-08-19T02:55:20;19.20;99.90
13642;DHT22;6894;52.196;9.904;2022-08-19T02:57:47;19.20;99.90
13642;DHT22;6894;52.196;9.904;2022-08-19T03:00:14;19.30;99.90
13642;DHT22;6894;52.196;9.904;2022-08-19T03:02:42;19.30;99.90
13642;DHT22;6894;52.196;9.904;2022-08-19T03:05:10;19.30;99.90
13642;DHT22;6894;52.196;9.904;2022-08-19T03:07:37;19.30;99.90
13642;DHT22;6894;52.196;9.904;2022-08-19T03:10:05;19.30;99.90
13642;DHT22;6894;52.196;9.904;2022-08-19T03:12:35;19.30;99.90
13642;DHT22;6894;52.196;9.904;2022-08-19T03:15:03;19.30;99.90
13642;DHT22;6894;52.196;9.904;2022-08-19T03:17:30;19.30;99.90
13642;DHT22;6894;52.196;9.904;2022-08-19T03:19:57;19.30;99.90
13642;DHT22;6894;52.196;9.904;2022-08-19T03:22:25;19.40;99.90
13642;DHT22;6894;52.196;9.904;2022-08-19T03:24:51;19.40;99.90
13642;DHT22;6894;52.196;9.904;2022-08-19T03:27:19;19.50;99.90
13642;DHT22;6894;52.196;9.904;2022-08-19T03:29:45;19.40;99.90
13642;DHT22;6894;52.196;9.904;2022-08-19T03:32:13;19.50;99.90
13642;DHT22;6894;52.196;9.904;2022-08-19T03:34:40;19.50;99.90
13642;DHT22;6894;52.196;9.904;2022-08-19T03:37:09;19.40;99.90
13642;DHT22;6894;52.196;9.904;2022-08-19T03:39:39;19.40;99.90
13642;DHT22;6894;52.196;9.904;2022-08-19T03:42:07;19.40;99.90
13642;DHT22;6894;52.196;9.904;2022-08-19T03:44:34;19.40;99.90
13642;DHT22;6894;52.196;9.904;2022-08-19T03:47:03;19.30;99.90
13642;DHT22;6894;52.196;9.904;2022-08-19T03:49:32;19.30;99.90
13642;DHT22;6894;52.196;9.904;2022-08-19T03:52:00;19.20;99.90
13642;DHT22;6894;52.196;9.904;2022-08-19T03:54:28;19.20;99.90
13642;DHT22;6894;52.196;9.904;2022-08-19T03:56:56;19.10;99.90
13642;DHT22;6894;52.196;9.904;2022-08-19T03:59:25;18.90;99.90
13642;DHT22;6894;52.196;9.904;2022-08-19T04:01:53;18.80;99.90
13642;DHT22;6894;52.196;9.904;2022-08-19T04:04:20;18.70;99.90
13642;DHT22;6894;52.196;9.904;2022-08-19T04:06:47;18.50;99.90
13642;DHT22;6894;52.196;9.904;2022-08-19T04:09:15;18.40;99.90
13642;DHT22;6894;52.196;9.904;2022-08-19T04:11:46;18.30;99.90
13642;DHT22;6894;52.196;9.904;2022-08-19T04:14:16;18.10;99.90
13642;DHT22;6894;52.196;9.904;2022-08-19T04:16:44;18.20;99.90
13642;DHT22;6894;52.196;9.904;2022-08-19T04:19:12;18.10;99.90
13642;DHT22;6894;52.196;9.904;2022-08-19T04:21:39;18.10;99.90
13642;DHT22;6894;52.196;9.904;2022-08-19T04:24:06;18.20;99.90
13642;DHT22;6894;52.196;9.904;2022-08-19T04:26:36;18.10;99.90
13642;DHT22;6894;52.196;9.904;2022-08-19T04:29:10;18.10;99.90
13642;DHT22;6894;52.196;9.904;2022-08-19T04:31:40;18.10;99.90
13642;DHT22;6894;52.196;9.904;2022-08-19T04:34:11;18.10;99.90
13642;DHT22;6894;52.196;9.904;2022-08-19T04:36:39;18.10;99.90
13642;DHT22;6894;52.196;9.904;2022-08-19T04:39:10;18.00;99.90
13642;DHT22;6894;52.196;9.904;2022-08-19T04:41:37;18.00;99.90
13642;DHT22;6894;52.196;9.904;2022-08-19T04:44:22;18.00;99.90
13642;DHT22;6894;52.196;9.904;2022-08-19T04:46:50;18.10;99.90
13642;DHT22;6894;52.196;9.904;2022-08-19T04:49:19;18.10;99.90
13642;DHT22;6894;52.196;9.904;2022-08-19T04:51:47;18.00;99.90
13642;DHT22;6894;52.196;9.904;2022-08-19T04:54:16;18.10;99.90
13642;DHT22;6894;52.196;9.904;2022-08-19T04:56:43;18.00;99.90
13642;DHT22;6894;52.196;9.904;2022-08-19T04:59:10;18.00;99.90
13642;DHT22;6894;52.196;9.904;2022-08-19T05:01:37;18.00;99.90
13642;DHT22;6894;52.196;9.904;2022-08-19T05:04:06;18.00;99.90
13642;DHT22;6894;52.196;9.904;2022-08-19T05:06:35;18.00;99.90
13642;DHT22;6894;52.196;9.904;2022-08-19T05:09:03;18.00;99.90
13642;DHT22;6894;52.196;9.904;2022-08-19T05:11:33;18.00;99.90
13642;DHT22;6894;52.196;9.904;2022-08-19T05:14:01;18.00;99.90
13642;DHT22;6894;52.196;9.904;2022-08-19T05:16:28;18.00;99.90
13642;DHT22;6894;52.196;9.904;2022-08-19T05:18:55;18.10;99.90
13642;DHT22;6894;52.196;9.904;2022-08-19T05:21:41;18.10;99.90
13642;DHT22;6894;52.196;9.904;2022-08-19T05:24:43;18.00;99.90
13642;DHT22;6894;52.196;9.904;2022-08-19T05:27:09;18.10;99.90
13642;DHT22;6894;52.196;9.904;2022-08-19T05:29:36;18.10;99.90
13642;DHT22;6894;52.196;9.904;2022-08-19T05:32:04;18.10;99.90
13642;DHT22;6894;52.196;9.904;2022-08-19T05:34:34;18.10;99.90
13642;DHT22;6894;52.196;9.904;2022-08-19T05:37:03;18.10;99.90
13642;DHT22;6894;52.196;9.904;2022-08-19T05:39:32;18.20;99.90
13642;DHT22;6894;52.196;9.904;2022-08-19T05:42:02;18.20;99.90
13642;DHT22;6894;52.196;9.904;2022-08-19T05:44:35;18.20;99.90
13642;DHT22;6894;52.196;9.904;2022-08-19T05:47:04;18.20;99.90
13642;DHT22;6894;52.196;9.904;2022-08-19T05:49:32;18.20;99.90
13642;DHT22;6894;52.196;9.904;2022-08-19T05:52:03;18.20;99.90
13642;DHT22;6894;52.196;9.904;2022-08-19T05:54:30;18.20;99.90
13642;DHT22;6894;52.196;9.904;2022-08-19T05:56:57;18.20;99.90
13642;DHT22;6894;52.196;9.904;2022-08-19T05:59:23;18.30;99.90
13642;DHT22;6894;52.196;9.904;2022-08-19T06:01:53;18.20;99.90
13642;DHT22;6894;52.196;9.904;2022-08-19T06:04:23;18.20;99.90
13642;DHT22;6894;52.196;9.904;2022-08-19T06:06:51;18.30;99.90
13642;DHT22;6894;52.196;9.904;2022-08-19T06:09:21;18.20;99.90
13642;DHT22;6894;52.196;9.904;2022-08-19T06:11:50;18.30;99.90
13642;DHT22;6894;52.196;9.904;2022-08-19T06:14:22;18.30;99.90
13642;DHT22;6894;52.196;9.904;2022-08-19T06:16:50;18.40;99.90
13642;DHT22;6894;52.196;9.904;2022-08-19T06:19:19;18.40;99.90
13642;DHT22;6894;52.196;9.904;2022-08-19T06:21:48;18.40;99.90
13642;DHT22;6894;52.196;9.904;2022-08-19T06:24:18;18.40;99.90
13642;DHT22;6894;52.196;9.904;2022-08-19T06:26:48;18.30;99.90
13642;DHT22;6894;52.196;9.904;2022-08-19T06:29:18;18.20;99.90
13642;DHT22;6894;52.196;9.904;2022-08-19T06:31:50;18.20;99.90
13642;DHT22;6894;52.196;9.904;2022-08-19T06:34:18;18.30;99.90
13642;DHT22;6894;52.196;9.904;2022-08-19T06:36:47;18.20;99.90
13642;DHT22;6894;52.196;9.904;2022-08-19T06:39:17;18.20;99.90
13642;DHT22;6894;52.196;9.904;2022-08-19T06:41:48;18.20;99.90
13642;DHT22;6894;52.196;9.904;2022-08-19T06:44:15;18.10;99.90
13642;DHT22;6894;52.196;9.904;2022-08-19T06:46:43;18.20;99.90
13642;DHT22;6894;52.196;9.904;2022-08-19T06:49:10;18.10;99.90
13642;DHT22;6894;52.196;9.904;2022-08-19T06:51:40;18.10;99.90
13642;DHT22;6894;52.196;9.904;2022-08-19T06:54:07;18.10;99.90
13642;DHT22;6894;52.196;9.904;2022-08-19T06:56:34;18.00;99.90
13642;DHT22;6894;52.196;9.904;2022-08-19T06:59:04;18.10;99.90
13642;DHT22;6894;52.196;9.904;2022-08-19T07:01:34;18.20;99.90
13642;DHT22;6894;52.196;9.904;2022-08-19T07:04:04;18.20;99.90
13642;DHT22;6894;52.196;9.904;2022-08-19T07:06:31;18.30;99.90
13642;DHT22;6894;52.196;9.904;2022-08-19T07:08:58;18.40;99.90
13642;DHT22;6894;52.196;9.904;2022-08-19T07:11:25;18.40;99.90
13642;DHT22;6894;52.196;9.904;2022-08-19T07:13:52;18.50;99.90
13642;DHT22;6894;52.196;9.904;2022-08-19T07:16:20;18.50;99.90
13642;DHT22;6894;52.196;9.904;2022-08-19T07:18:47;18.60;99.90
13642;DHT22;6894;52.196;9.904;2022-08-19T07:21:17;18.70;99.90
13642;DHT22;6894;52.196;9.904;2022-08-19T07:23:45;18.80;99.90
13642;DHT22;6894;52.196;9.904;2022-08-19T07:26:15;18.90;99.90
13642;DHT22;6894;52.196;9.904;2022-08-19T07:28:42;18.90;99.90
13642;DHT22;6894;52.196;9.904;2022-08-19T07:31:11;19.00;99.90
13642;DHT22;6894;52.196;9.904;2022-08-19T07:33:40;19.10;99.90
13642;DHT22;6894;52.196;9.904;2022-08-19T07:36:10;19.20;99.90
13642;DHT22;6894;52.196;9.904;2022-08-19T07:38:39;19.30;99.90
13642;DHT22;6894;52.196;9.904;2022-08-19T07:41:08;19.40;99.90
13642;DHT22;6894;52.196;9.904;2022-08-19T07:43:36;19.30;99.90
13642;DHT22;6894;52.196;9.904;2022-08-19T07:46:02;19.30;99.90
13642;DHT22;6894;52.196;9.904;2022-08-19T07:48:29;19.40;99.90
13642;DHT22;6894;52.196;9.904;2022-08-19T07:50:59;19.70;99.90
13642;DHT22;6894;52.196;9.904;2022-08-19T07:53:27;19.80;99.90
13642;DHT22;6894;52.196;9.904;2022-08-19T07:55:54;19.80;99.90
13642;DHT22;6894;52.196;9.904;2022-08-19T07:58:30;20.00;99.90
13642;DHT22;6894;52.196;9.904;2022-08-19T08:00:57;20.20;99.90
13642;DHT22;6894;52.196;9.904;2022-08-19T08:03:25;20.20;99.90
13642;DHT22;6894;52.196;9.904;2022-08-19T08:06:07;20.30;99.90
13642;DHT22;6894;52.196;9.904;2022-08-19T08:08:52;20.50;99.90
13642;DHT22;6894;52.196;9.904;2022-08-19T08:11:37;20.30;99.90
13642;DHT22;6894;52.196;9.904;2022-08-19T08:14:04;20.20;99.90
13642;DHT22;6894;52.196;9.904;2022-08-19T08:16:34;20.10;99.90
13642;DHT22;6894;52.196;9.904;2022-08-19T08:19:01;20.20;99.90
13642;DHT22;6894;52.196;9.904;2022-08-19T08:21:31;20.40;99.90
13642;DHT22;6894;52.196;9.904;2022-08-19T08:23:58;20.30;99.90
13642;DHT22;6894;52.196;9.904;2022-08-19T08:26:25;20.30;99.90
13642;DHT22;6894;52.196;9.904;2022-08-19T08:28:55;20.60;99.90
13642;DHT22;6894;52.196;9.904;2022-08-19T08:31:24;21.20;99.90
13642;DHT22;6894;52.196;9.904;2022-08-19T08:33:51;21.80;99.90
13642;DHT22;6894;52.196;9.904;2022-08-19T08:36:21;22.10;99.90
13642;DHT22;6894;52.196;9.904;2022-08-19T08:38:49;22.40;99.90
13642;DHT22;6894;52.196;9.904;2022-08-19T08:41:23;22.60;99.90
13642;DHT22;6894;52.196;9.904;2022-08-19T08:43:52;22.50;99.90
13642;DHT22;6894;52.196;9.904;2022-08-19T08:46:23;22.50;99.90
13642;DHT22;6894;52.196;9.904;2022-08-19T08:48:56;22.70;99.90
13642;DHT22;6894;52.196;9.904;2022-08-19T08:51:29;22.80;99.90
13642;DHT22;6894;52.196;9.904;2022-08-19T08:54:02;22.80;99.90
13642;DHT22;6894;52.196;9.904;2022-08-19T08:56:29;22.50;99.90
13642;DHT22;6894;52.196;9.904;2022-08-19T08:58:59;22.30;99.90
13642;DHT22;6894;52.196;9.904;2022-08-19T09:01:27;22.30;99.90
13642;DHT22;6894;52.196;9.904;2022-08-19T09:03:54;22.50;99.90
13642;DHT22;6894;52.196;9.904;2022-08-19T09:06:28;22.80;99.90
13642;DHT22;6894;52.196;9.904;2022-08-19T09:09:03;23.00;99.90
13642;DHT22;6894;52.196;9.904;2022-08-19T09:11:39;23.40;99.90
13642;DHT22;6894;52.196;9.904;2022-08-19T09:14:14;23.30;99.90
13642;DHT22;6894;52.196;9.904;2022-08-19T09:16:44;23.40;99.90
13642;DHT22;6894;52.196;9.904;2022-08-19T09:19:11;23.40;99.90
13642;DHT22;6894;52.196;9.904;2022-08-19T09:21:37;23.50;99.90
13642;DHT22;6894;52.196;9.904;2022-08-19T09:24:06;23.70;99.90
13642;DHT22;6894;52.196;9.904;2022-08-19T09:26:33;23.70;99.90
13642;DHT22;6894;52.196;9.904;2022-08-19T09:29:00;22.80;99.90
13642;DHT22;6894;52.196;9.904;2022-08-19T09:31:30;22.50;99.90
13642;DHT22;6894;52.196;9.904;2022-08-19T09:33:58;23.00;99.90
13642;DHT22;6894;52.196;9.904;2022-08-19T09:36:27;23.50;99.90
13642;DHT22;6894;52.196;9.904;2022-08-19T09:38:58;24.20;99.90
13642;DHT22;6894;52.196;9.904;2022-08-19T09:41:27;24.40;99.90
13642;DHT22;6894;52.196;9.904;2022-08-19T09:43:55;24.30;99.90
13642;DHT22;6894;52.196;9.904;2022-08-19T09:46:23;24.60;99.90
13642;DHT22;6894;52.196;9.904;2022-08-19T09:48:52;24.80;99.90
13642;DHT22;6894;52.196;9.904;2022-08-19T09:51:21;24.90;99.90
13642;DHT22;6894;52.196;9.904;2022-08-19T09:53:49;25.00;99.90
13642;DHT22;6894;52.196;9.904;2022-08-19T09:56:17;25.30;99.90
13642;DHT22;6894;52.196;9.904;2022-08-19T09:58:46;25.80;99.90
13642;DHT22;6894;52.196;9.904;2022-08-19T10:01:17;26.10;99.90
13642;DHT22;6894;52.196;9.904;2022-08-19T10:03:48;26.20;99.90
13642;DHT22;6894;52.196;9.904;2022-08-19T10:06:18;26.40;99.90
13642;DHT22;6894;52.196;9.904;2022-08-19T10:08:46;26.40;99.90
13642;DHT22;6894;52.196;9.904;2022-08-19T10:11:13;25.50;99.90
13642;DHT22;6894;52.196;9.904;2022-08-19T10:13:43;25.40;99.90
13642;DHT22;6894;52.196;9.904;2022-08-19T10:16:15;25.90;99.90
13642;DHT22;6894;52.196;9.904;2022-08-19T10:18:43;26.20;99.90
13642;DHT22;6894;52.196;9.904;2022-08-19T10:21:12;25.90;99.90
13642;DHT22;6894;52.196;9.904;2022-08-19T10:23:41;25.90;99.90
13642;DHT22;6894;52.196;9.904;2022-08-19T10:26:12;26.60;99.90
13642;DHT22;6894;52.196;9.904;2022-08-19T10:28:39;27.00;99.90
13642;DHT22;6894;52.196;9.904;2022-08-19T10:31:07;27.50;99.90
13642;DHT22;6894;52.196;9.904;2022-08-19T10:33:36;27.00;95.50
13642;DHT22;6894;52.196;9.904;2022-08-19T10:36:05;26.80;96.30
13642;DHT22;6894;52.196;9.904;2022-08-19T10:38:32;26.20;95.70
13642;DHT22;6894;52.196;9.904;2022-08-19T10:41:07;26.30;99.90
13642;DHT22;6894;52.196;9.904;2022-08-19T10:43:34;26.50;99.90
13642;DHT22;6894;52.196;9.904;2022-08-19T10:46:02;26.90;97.50
13642;DHT22;6894;52.196;9.904;2022-08-19T10:48:31;26.70;97.10
13642;DHT22;6894;52.196;9.904;2022-08-19T10:50:59;26.70;99.60
13642;DHT22;6894;52.196;9.904;2022-08-19T10:53:43;26.90;99.00
13642;DHT22;6894;52.196;9.904;2022-08-19T10:56:11;26.90;95.70
13642;DHT22;6894;52.196;9.904;2022-08-19T10:58:55;27.00;92.40
13642;DHT22;6894;52.196;9.904;2022-08-19T11:01:23;27.40;91.40
13642;DHT22;6894;52.196;9.904;2022-08-19T11:03:51;27.30;90.40
13642;DHT22;6894;52.196;9.904;2022-08-19T11:06:19;27.30;90.30
13642;DHT22;6894;52.196;9.904;2022-08-19T11:08:46;27.50;83.60
13642;DHT22;6894;52.196;9.904;2022-08-19T11:11:13;27.20;83.60
13642;DHT22;6894;52.196;9.904;2022-08-19T11:13:41;27.50;87.00
13642;DHT22;6894;52.196;9.904;2022-08-19T11:16:11;27.60;82.70
13642;DHT22;6894;52.196;9.904;2022-08-19T11:18:41;27.90;84.00
13642;DHT22;6894;52.196;9.904;2022-08-19T11:21:12;27.50;76.70
13642;DHT22;6894;52.196;9.904;2022-08-19T11:23:41;27.20;79.30
13642;DHT22;6894;52.196;9.904;2022-08-19T11:26:09;26.60;82.60
13642;DHT22;6894;52.196;9.904;2022-08-19T11:28:36;26.80;85.30
13642;DHT22;6894;52.196;9.904;2022-08-19T11:31:03;27.00;81.30
13642;DHT22;6894;52.196;9.904;2022-08-19T11:33:30;27.30;81.20
13642;DHT22;6894;52.196;9.904;2022-08-19T11:35:58;27.30;81.00
13642;DHT22;6894;52.196;9.904;2022-08-19T11:38:26;27.70;82.60
13642;DHT22;6894;52.196;9.904;2022-08-19T11:40:59;27.90;77.00
13642;DHT22;6894;52.196;9.904;2022-08-19T11:43:27;27.90;76.80
13642;DHT22;6894;52.196;9.904;2022-08-19T11:45:54;27.40;81.00
13642;DHT22;6894;52.196;9.904;2022-08-19T11:48:22;27.20;80.80
13642;DHT22;6894;52.196;9.904;2022-08-19T11:50:49;27.60;80.00
13642;DHT22;6894;52.196;9.904;2022-08-19T11:53:17;28.30;74.50
13642;DHT22;6894;52.196;9.904;2022-08-19T11:55:45;28.60;62.80
13642;DHT22;6894;52.196;9.904;2022-08-19T11:58:16;28.40;59.40
13642;DHT22;6894;52.196;9.904;2022-08-19T12:00:43;28.20;62.10
13642;DHT22;6894;52.196;9.904;2022-08-19T12:03:12;28.30;60.90
13642;DHT22;6894;52.196;9.904;2022-08-19T12:05:40;28.30;56.80
13642;DHT22;6894;52.196;9.904;2022-08-19T12:08:08;28.10;55.40
13642;DHT22;6894;52.196;9.904;2022-08-19T12:10:35;28.60;58.50
13642;DHT22;6894;52.196;9.904;2022-08-19T12:13:02;28.90;54.40
13642;DHT22;6894;52.196;9.904;2022-08-19T12:15:35;29.10;57.80
13642;DHT22;6894;52.196;9.904;2022-08-19T12:18:03;29.30;50.00
13642;DHT22;6894;52.196;9.904;2022-08-19T12:20:30;29.80;51.00
13642;DHT22;6894;52.196;9.904;2022-08-19T12:22:56;29.80;45.80
13642;DHT22;6894;52.196;9.904;2022-08-19T12:25:23;28.70;48.60
13642;DHT22;6894;52.196;9.904;2022-08-19T12:27:50;29.40;51.80
13642;DHT22;6894;52.196;9.904;2022-08-19T12:30:17;29.10;46.20
13642;DHT22;6894;52.196;9.904;2022-08-19T12:32:45;28.90;45.20
13642;DHT22;6894;52.196;9.904;2022-08-19T12:35:12;28.90;46.90
13642;DHT22;6894;52.196;9.904;2022-08-19T12:37:39;28.90;46.40
13642;DHT22;6894;52.196;9.904;2022-08-19T12:40:10;28.70;47.70
13642;DHT22;6894;52.196;9.904;2022-08-19T12:42:37;29.30;48.00
13642;DHT22;6894;52.196;9.904;2022-08-19T12:45:08;29.50;41.70
13642;DHT22;6894;52.196;9.904;2022-08-19T12:47:36;30.00;41.00
13642;DHT22;6894;52.196;9.904;2022-08-19T12:50:05;29.90;36.70
13642;DHT22;6894;52.196;9.904;2022-08-19T12:52:33;29.70;37.70
13642;DHT22;6894;52.196;9.904;2022-08-19T12:55:04;29.50;37.40
13642;DHT22;6894;52.196;9.904;2022-08-19T12:57:31;29.50;36.80
13642;DHT22;6894;52.196;9.904;2022-08-19T13:00:03;29.40;39.20
13642;DHT22;6894;52.196;9.904;2022-08-19T13:02:32;29.40;37.00
13642;DHT22;6894;52.196;9.904;2022-08-19T13:05:00;29.20;34.90
13642;DHT22;6894;52.196;9.904;2022-08-19T13:07:28;29.10;34.90
13642;DHT22;6894;52.196;9.904;2022-08-19T13:09:56;29.30;34.90
13642;DHT22;6894;52.196;9.904;2022-08-19T13:12:22;29.60;34.90
13642;DHT22;6894;52.196;9.904;2022-08-19T13:14:52;29.40;32.20
13642;DHT22;6894;52.196;9.904;2022-08-19T13:17:19;29.20;35.90
13642;DHT22;6894;52.196;9.904;2022-08-19T13:19:47;29.30;35.30
13642;DHT22;6894;52.196;9.904;2022-08-19T13:22:13;29.70;38.40
13642;DHT22;6894;52.196;9.904;2022-08-19T13:24:42;29.80;35.50
13642;DHT22;6894;52.196;9.904;2022-08-19T13:27:08;29.70;33.30
13642;DHT22;6894;52.196;9.904;2022-08-19T13:29:35;29.90;32.30
13642;DHT22;6894;52.196;9.904;2022-08-19T13:32:20;29.70;31.70
13642;DHT22;6894;52.196;9.904;2022-08-19T13:35:05;29.50;32.50
13642;DHT22;6894;52.196;9.904;2022-08-19T13:37:32;29.50;31.70
13642;DHT22;6894;52.196;9.904;2022-08-19T13:40:11;29.30;32.30
13642;DHT22;6894;52.196;9.904;2022-08-19T13:42:41;29.50;31.40
13642;DHT22;6894;52.196;9.904;2022-08-19T13:45:08;29.90;30.40
13642;DHT22;6894;52.196;9.904;2022-08-19T13:47:36;29.40;30.20
13642;DHT22;6894;52.196;9.904;2022-08-19T13:50:08;29.10;29.30
13642;DHT22;6894;52.196;9.904;2022-08-19T13:52:36;29.50;32.20
13642;DHT22;6894;52.196;9.904;2022-08-19T13:55:03;29.70;26.90
13642;DHT22;6894;52.196;9.904;2022-08-19T13:57:32;29.00;26.40
13642;DHT22;6894;52.196;9.904;2022-08-19T13:59:59;29.10;28.20
13642;DHT22;6894;52.196;9.904;2022-08-19T14:02:26;29.70;29.00
13642;DHT22;6894;52.196;9.904;2022-08-19T14:04:53;29.70;27.10
13642;DHT22;6894;52.196;9.904;2022-08-19T14:07:20;30.40;28.20
13642;DHT22;6894;52.196;9.904;2022-08-19T14:09:49;30.30;25.60
13642;DHT22;6894;52.196;9.904;2022-08-19T14:12:18;30.70;26.10
13642;DHT22;6894;52.196;9.904;2022-08-19T14:14:47;30.40;23.30
13642;DHT22;6894;52.196;9.904;2022-08-19T14:17:13;30.20;24.40
13642;DHT22;6894;52.196;9.904;2022-08-19T14:19:40;29.70;24.80
13642;DHT22;6894;52.196;9.904;2022-08-19T14:22:08;29.90;26.90
13642;DHT22;6894;52.196;9.904;2022-08-19T14:24:36;30.40;24.60
13642;DHT22;6894;52.196;9.904;2022-08-19T14:27:04;30.30;22.90
13642;DHT22;6894;52.196;9.904;2022-08-19T14:29:31;30.50;22.60
13642;DHT22;6894;52.196;9.904;2022-08-19T14:31:59;31.00;24.10
13642;DHT22;6894;52.196;9.904;2022-08-19T14:34:26;31.20;21.40
13642;DHT22;6894;52.196;9.904;2022-08-19T14:36:53;31.70;18.00
13642;DHT22;6894;52.196;9.904;2022-08-19T14:39:20;31.50;16.90
13642;DHT22;6894;52.196;9.904;2022-08-19T14:41:47;31.20;15.90
13642;DHT22;6894;52.196;9.904;2022-08-19T14:44:13;31.20;17.90
13642;DHT22;6894;52.196;9.904;2022-08-19T14:46:40;31.50;18.40
13642;DHT22;6894;52.196;9.904;2022-08-19T14:49:09;31.90;17.50
13642;DHT22;6894;52.196;9.904;2022-08-19T14:51:35;31.90;14.80
13642;DHT22;6894;52.196;9.904;2022-08-19T14:54:02;31.50;13.00
13642;DHT22;6894;52.196;9.904;2022-08-19T14:56:30;31.60;14.30
13642;DHT22;6894;52.196;9.904;2022-08-19T14:58:57;31.60;13.60
13642;DHT22;6894;52.196;9.904;2022-08-19T15:01:27;31.50;12.10
13642;DHT22;6894;52.196;9.904;2022-08-19T15:03:54;30.70;12.70
13642;DHT22;6894;52.196;9.904;2022-08-19T15:06:23;30.20;14.10
13642;DHT22;6894;52.196;9.904;2022-08-19T15:08:50;30.00;15.70
13642;DHT22;6894;52.196;9.904;2022-08-19T15:11:21;30.20;17.00
13642;DHT22;6894;52.196;9.904;2022-08-19T15:13:48;30.70;18.20
13642;DHT22;6894;52.196;9.904;2022-08-19T15:16:16;30.90;14.70
13642;DHT22;6894;52.196;9.904;2022-08-19T15:18:44;30.70;15.10
13642;DHT22;6894;52.196;9.904;2022-08-19T15:21:12;30.20;14.70
13642;DHT22;6894;52.196;9.904;2022-08-19T15:23:41;30.00;17.60
13642;DHT22;6894;52.196;9.904;2022-08-19T15:26:07;29.60;16.30
13642;DHT22;6894;52.196;9.904;2022-08-19T15:28:36;29.50;19.60
13642;DHT22;6894;52.196;9.904;2022-08-19T15:31:03;29.90;18.50
13642;DHT22;6894;52.196;9.904;2022-08-19T15:33:31;30.20;16.70
13642;DHT22;6894;52.196;9.904;2022-08-19T15:35:58;30.10;15.50
13642;DHT22;6894;52.196;9.904;2022-08-19T15:38:24;29.60;16.00
13642;DHT22;6894;52.196;9.904;2022-08-19T15:40:53;29.40;17.20
13642;DHT22;6894;52.196;9.904;2022-08-19T15:43:41;29.20;16.80
13642;DHT22;6894;52.196;9.904;2022-08-19T15:46:08;29.00;16.10
13642;DHT22;6894;52.196;9.904;2022-08-19T15:48:36;28.90;16.70
13642;DHT22;6894;52.196;9.904;2022-08-19T15:51:03;28.80;19.00
13642;DHT22;6894;52.196;9.904;2022-08-19T15:53:30;28.50;18.20
13642;DHT22;6894;52.196;9.904;2022-08-19T15:55:58;28.10;20.00